Time;durP1;ratioP1;P1;durP2;ratioP2;P2;SDS_P1;SDS_P2;PMS_P1;PMS_P2;Temp;Humidity;BMP_temperature;BMP_pressure;BME280_temperature;BME280_humidity;BME280_pressure;Samples;Min_cycle;Max_cycle;Signal;HPM_P1;HPM_P2
2021/04/17 00:01:39;;;;;;;12.95;6.63;;;7.50;65.10;;;;;;5048937;28;20439;-84
2021/04/17 00:04:05;;;;;;;13.68;6.60;;;7.50;65.30;;;;;;5049884;28;20108;-82
2021/04/17 00:06:32;;;;;;;16.38;6.38;;;7.50;65.40;;;;;;5050051;28;20025;-82
2021/04/17 00:08:58;;;;;;;14.88;6.78;;;7.40;65.40;;;;;;5032380;28;20324;-82
2021/04/17 00:11:24;;;;;;;15.05;7.63;;;7.40;65.90;;;;;;5048717;28;20048;-82
2021/04/17 00:13:51;;;;;;;13.55;6.00;;;7.40;65.60;;;;;;5032049;28;20029;-81
2021/04/17 00:16:18;;;;;;;12.18;6.20;;;7.30;65.70;;;;;;5032093;28;20033;-82
2021/04/17 00:18:44;;;;;;;11.93;5.65;;;7.30;65.90;;;;;;5048573;28;20025;-82
2021/04/17 00:21:10;;;;;;;10.10;5.40;;;7.30;65.90;;;;;;5032272;28;20044;-81
2021/04/17 00:23:36;;;;;;;8.60;5.43;;;7.30;66.00;;;;;;5048753;28;20047;-83
2021/04/17 00:26:02;;;;;;;13.52;6.40;;;7.30;65.90;;;;;;5015301;28;20021;-82
2021/04/17 00:28:28;;;;;;;10.68;5.50;;;7.30;66.00;;;;;;5048423;28;20021;-83
2021/04/17 00:30:54;;;;;;;8.63;5.10;;;7.30;66.00;;;;;;5031744;28;20464;-83
2021/04/17 00:33:19;;;;;;;11.93;5.35;;;7.30;66.00;;;;;;5031638;28;20033;-82
2021/04/17 00:35:45;;;;;;;11.20;5.80;;;7.20;66.00;;;;;;5048258;28;20033;-83
2021/04/17 00:38:11;;;;;;;10.35;5.95;;;7.20;66.10;;;;;;5031301;28;20053;-83
2021/04/17 00:40:37;;;;;;;8.57;5.60;;;7.20;66.20;;;;;;5048622;28;20118;-83
2021/04/17 00:43:03;;;;;;;8.68;5.50;;;7.20;66.30;;;;;;5048126;28;20029;-82
2021/04/17 00:45:28;;;;;;;12.02;6.72;;;7.10;66.50;;;;;;5049223;28;20476;-82
2021/04/17 00:47:55;;;;;;;15.10;5.57;;;7.10;66.50;;;;;;5048187;28;20031;-84
2021/04/17 00:50:21;;;;;;;9.85;5.72;;;7.00;66.60;;;;;;5047959;28;20040;-82
2021/04/17 00:52:46;;;;;;;12.80;5.88;;;7.00;66.70;;;;;;5048042;28;20036;-83
2021/04/17 00:55:13;;;;;;;11.73;5.82;;;7.00;66.80;;;;;;5031276;28;20036;-83
2021/04/17 00:57:39;;;;;;;8.25;6.18;;;7.00;66.90;;;;;;5047659;28;20116;-82
2021/04/17 01:00:07;;;;;;;10.18;5.38;;;6.90;67.00;;;;;;5047917;28;20592;-84
2021/04/17 01:02:39;;;;;;;10.50;5.90;;;6.90;67.20;;;;;;5047561;28;20029;-83
2021/04/17 01:05:07;;;;;;;12.48;5.53;;;6.80;67.40;;;;;;5047806;28;20029;-84
2021/04/17 01:07:42;;;;;;;8.63;5.75;;;6.70;67.40;;;;;;5048681;28;20021;-85
2021/04/17 01:10:45;;;;;;;7.15;5.32;;;6.70;67.60;;;;;;5047675;28;20115;-85
2021/04/17 01:13:11;;;;;;;10.63;5.72;;;6.60;67.50;;;;;;5048829;28;20060;-82
2021/04/17 01:15:39;;;;;;;12.25;5.68;;;6.60;67.40;;;;;;5048197;28;20025;-83
2021/04/17 01:18:06;;;;;;;9.27;5.55;;;6.50;67.60;;;;;;5030928;28;20029;-84
2021/04/17 01:20:41;;;;;;;9.88;6.18;;;6.50;67.80;;;;;;5047596;28;20032;-82
2021/04/17 01:23:34;;;;;;;13.20;6.88;;;6.40;68.00;;;;;;5047323;28;20025;-83
2021/04/17 01:26:17;;;;;;;9.32;5.93;;;6.40;68.10;;;;;;5047257;28;20429;-83
2021/04/17 01:28:47;;;;;;;12.02;5.82;;;6.40;68.10;;;;;;5047447;28;20021;-84
2021/04/17 01:31:15;;;;;;;11.82;5.85;;;6.40;68.10;;;;;;5048746;28;20100;-83
2021/04/17 01:33:44;;;;;;;11.68;5.57;;;6.30;68.10;;;;;;5047244;28;20037;-82
2021/04/17 01:36:12;;;;;;;13.82;5.60;;;6.30;68.30;;;;;;5047314;28;20475;-84
2021/04/17 01:38:42;;;;;;;10.18;6.53;;;6.30;68.20;;;;;;5046867;28;20132;-83
2021/04/17 01:41:20;;;;;;;11.30;5.35;;;6.30;68.40;;;;;;5048357;28;20427;-82
2021/04/17 01:43:51;;;;;;;8.00;5.90;;;6.10;68.60;;;;;;5048767;28;20025;-83
2021/04/17 01:46:21;;;;;;;8.95;5.63;;;6.10;68.70;;;;;;5047453;28;20082;-83
2021/04/17 01:48:50;;;;;;;13.77;5.80;;;6.00;68.90;;;;;;5048402;28;20025;-83
2021/04/17 01:51:17;;;;;;;8.60;5.10;;;5.90;69.00;;;;;;5030793;28;20357;-83
2021/04/17 01:53:44;;;;;;;11.07;5.53;;;5.80;69.20;;;;;;5030443;28;20404;-85
2021/04/17 01:56:12;;;;;;;9.95;5.70;;;5.80;69.50;;;;;;5048246;28;20025;-82
2021/04/17 01:58:42;;;;;;;10.50;5.40;;;5.80;69.80;;;;;;5046935;28;20191;-83
2021/04/17 02:01:08;;;;;;;8.25;5.38;;;5.80;69.90;;;;;;5046898;28;20494;-84
2021/04/17 02:03:35;;;;;;;7.45;4.75;;;5.80;69.80;;;;;;5046980;28;20380;-82
2021/04/17 02:06:01;;;;;;;8.40;5.55;;;5.80;69.70;;;;;;5046645;28;20075;-83
2021/04/17 02:08:26;;;;;;;7.05;4.72;;;5.80;69.70;;;;;;5046793;28;20029;-83
2021/04/17 02:10:52;;;;;;;8.73;4.78;;;5.70;69.80;;;;;;5046734;28;20388;-83
2021/04/17 02:13:19;;;;;;;9.18;6.18;;;5.70;69.90;;;;;;5046610;28;20040;-82
2021/04/17 02:15:46;;;;;;;8.20;6.20;;;5.70;69.90;;;;;;5030371;28;20383;-83
2021/04/17 02:18:19;;;;;;;9.85;5.43;;;5.70;69.90;;;;;;5030170;28;20025;-82
2021/04/17 02:20:50;;;;;;;8.15;4.70;;;5.70;70.00;;;;;;5046812;28;20025;-83
2021/04/17 02:23:17;;;;;;;8.95;4.93;;;5.60;69.90;;;;;;5047822;28;20025;-84
2021/04/17 02:25:43;;;;;;;8.13;5.25;;;5.60;69.80;;;;;;5030102;28;20520;-82
2021/04/17 02:28:09;;;;;;;8.98;5.43;;;5.60;69.90;;;;;;5017305;28;20062;-82
2021/04/17 02:30:38;;;;;;;9.15;4.95;;;5.60;70.00;;;;;;5051958;28;20036;-82
2021/04/17 02:33:05;;;;;;;8.40;5.13;;;5.60;70.20;;;;;;5017517;28;20044;-81
2021/04/17 02:35:31;;;;;;;8.88;5.28;;;5.60;70.00;;;;;;5050747;28;20387;-83
2021/04/17 02:37:57;;;;;;;9.52;5.07;;;5.60;70.10;;;;;;5050362;28;20064;-83
2021/04/17 02:40:23;;;;;;;8.55;4.18;;;5.50;70.00;;;;;;5050542;28;20021;-81
2021/04/17 02:42:48;;;;;;;11.25;4.72;;;5.50;70.00;;;;;;5050379;28;20503;-81
2021/04/17 02:45:15;;;;;;;10.63;5.10;;;5.50;70.10;;;;;;5033758;28;20025;-82
2021/04/17 02:47:40;;;;;;;7.75;4.68;;;5.50;70.10;;;;;;5050200;28;20471;-82
2021/04/17 02:50:07;;;;;;;7.32;3.67;;;5.40;70.10;;;;;;5050418;28;20037;-82
2021/04/17 02:52:32;;;;;;;9.32;3.40;;;5.40;70.10;;;;;;5050283;28;20025;-82
2021/04/17 02:54:58;;;;;;;7.97;4.68;;;5.40;70.10;;;;;;5033750;28;20032;-82
2021/04/17 02:57:24;;;;;;;7.45;4.60;;;5.40;70.10;;;;;;5050526;28;20049;-82
2021/04/17 02:59:49;;;;;;;9.70;4.45;;;5.40;70.30;;;;;;5033519;28;20107;-82
2021/04/17 03:02:15;;;;;;;9.73;5.28;;;5.40;70.30;;;;;;5050029;28;20021;-83
2021/04/17 03:04:41;;;;;;;6.57;4.10;;;5.40;70.30;;;;;;5051345;28;20112;-81
2021/04/17 03:07:07;;;;;;;8.10;4.18;;;5.40;70.20;;;;;;5033421;28;20102;-81
2021/04/17 03:09:32;;;;;;;6.55;3.83;;;5.40;70.30;;;;;;5016776;28;20074;-82
2021/04/17 03:11:58;;;;;;;8.10;3.67;;;5.40;70.30;;;;;;5051153;28;20017;-81
2021/04/17 03:14:24;;;;;;;7.22;3.38;;;5.40;70.20;;;;;;5016964;28;20472;-82
2021/04/17 03:16:51;;;;;;;7.70;3.15;;;5.40;70.10;;;;;;5033065;28;20106;-82
2021/04/17 03:19:16;;;;;;;10.02;3.63;;;5.40;69.90;;;;;;5049644;28;20139;-81
2021/04/17 03:21:42;;;;;;;7.95;3.20;;;5.40;69.70;;;;;;5033152;28;20503;-81
2021/04/17 03:24:08;;;;;;;4.75;3.33;;;5.40;69.60;;;;;;5049616;28;20475;-81
2021/04/17 03:26:34;;;;;;;5.05;3.47;;;5.40;69.50;;;;;;5033064;28;20025;-81
2021/04/17 03:29:00;;;;;;;9.18;4.40;;;5.40;69.60;;;;;;5032895;28;20380;-81
2021/04/17 03:31:26;;;;;;;7.88;4.32;;;5.30;69.60;;;;;;5049377;28;20471;-82
2021/04/17 03:33:51;;;;;;;10.13;3.83;;;5.30;69.70;;;;;;5049493;28;20042;-82
2021/04/17 03:36:17;;;;;;;5.50;3.63;;;5.30;69.90;;;;;;5032640;28;20134;-81
2021/04/17 03:38:43;;;;;;;7.60;4.38;;;5.30;70.00;;;;;;5048575;28;20610;-81
2021/04/17 03:41:08;;;;;;;5.55;3.35;;;5.30;70.00;;;;;;5032754;28;20036;-80
2021/04/17 03:43:34;;;;;;;6.97;3.45;;;5.20;70.00;;;;;;5050477;28;20025;-81
2021/04/17 03:46:00;;;;;;;7.60;3.30;;;5.20;70.00;;;;;;5049103;28;20112;-81
2021/04/17 03:48:26;;;;;;;5.63;2.88;;;5.20;69.90;;;;;;5032575;28;20033;-80
2021/04/17 03:50:51;;;;;;;6.60;3.97;;;5.20;69.90;;;;;;5015937;28;20056;-79
2021/04/17 03:53:17;;;;;;;6.03;3.17;;;5.20;69.90;;;;;;5032240;28;20033;-80
2021/04/17 03:55:43;;;;;;;12.80;3.08;;;5.20;69.80;;;;;;5032171;28;20064;-80
2021/04/17 03:58:08;;;;;;;12.02;3.35;;;5.20;69.80;;;;;;5050160;28;20045;-80
2021/04/17 04:00:34;;;;;;;12.60;3.60;;;5.20;69.80;;;;;;5015727;28;20029;-80
2021/04/17 04:03:00;;;;;;;5.78;3.05;;;5.20;69.90;;;;;;5032174;28;20124;-79
2021/04/17 04:05:26;;;;;;;5.07;3.20;;;5.20;69.90;;;;;;5048815;28;20025;-80
2021/04/17 04:07:52;;;;;;;5.82;2.70;;;5.20;69.90;;;;;;5032060;28;20452;-80
2021/04/17 04:10:18;;;;;;;5.47;3.28;;;5.20;69.90;;;;;;5048702;28;20040;-80
2021/04/17 04:12:44;;;;;;;7.15;3.35;;;5.20;70.00;;;;;;5048559;28;20035;-81
2021/04/17 04:15:12;;;;;;;9.75;3.35;;;5.20;70.10;;;;;;5049721;28;20060;-80
2021/04/17 04:17:38;;;;;;;7.30;3.30;;;5.10;70.20;;;;;;5049944;28;20036;-80
2021/04/17 04:20:05;;;;;;;5.60;3.22;;;5.10;70.20;;;;;;5048437;28;20021;-80
2021/04/17 04:22:32;;;;;;;8.45;3.38;;;5.00;70.30;;;;;;5049789;28;20480;-81
2021/04/17 04:24:58;;;;;;;4.50;2.85;;;5.00;70.40;;;;;;5049947;28;20021;-80
2021/04/17 04:27:24;;;;;;;4.53;3.20;;;4.90;70.50;;;;;;5048193;28;20078;-79
2021/04/17 04:29:50;;;;;;;4.35;3.03;;;4.80;70.70;;;;;;5015195;28;20437;-80
2021/04/17 04:32:15;;;;;;;5.82;3.03;;;4.80;70.80;;;;;;5048181;28;20033;-79
2021/04/17 04:34:41;;;;;;;6.97;3.22;;;4.80;70.90;;;;;;5015140;28;20025;-80
2021/04/17 04:37:07;;;;;;;6.20;3.15;;;4.80;70.90;;;;;;5048031;28;20519;-80
2021/04/17 04:39:32;;;;;;;8.40;3.30;;;4.80;71.00;;;;;;5049453;28;20098;-81
2021/04/17 04:41:58;;;;;;;8.98;3.60;;;4.80;71.40;;;;;;5049254;28;20460;-80
2021/04/17 04:44:24;;;;;;;7.80;3.42;;;4.80;71.00;;;;;;5048062;28;20148;-81
2021/04/17 04:46:49;;;;;;;8.43;3.20;;;4.80;71.10;;;;;;5049299;28;20067;-80
2021/04/17 04:49:15;;;;;;;5.05;3.22;;;4.80;71.10;;;;;;5014119;28;20021;-80
2021/04/17 04:51:41;;;;;;;7.63;3.53;;;4.80;71.30;;;;;;5031282;28;20434;-80
2021/04/17 04:54:07;;;;;;;7.15;3.85;;;4.80;71.30;;;;;;5031214;28;20033;-79
2021/04/17 04:56:33;;;;;;;5.55;3.78;;;4.80;71.30;;;;;;5047819;28;20112;-81
2021/04/17 04:58:58;;;;;;;8.82;3.72;;;4.80;71.20;;;;;;5031217;28;20026;-80
2021/04/17 05:01:25;;;;;;;7.57;3.63;;;4.80;71.30;;;;;;5047798;28;20040;-79
2021/04/17 05:03:51;;;;;;;10.00;3.75;;;4.80;71.30;;;;;;5049096;28;20021;-79
2021/04/17 05:06:17;;;;;;;6.63;3.50;;;4.80;71.30;;;;;;5047669;28;20128;-80
2021/04/17 05:08:42;;;;;;;8.85;3.33;;;4.90;71.40;;;;;;5047421;28;20032;-79
2021/04/17 05:11:08;;;;;;;5.95;3.63;;;4.90;71.40;;;;;;5031120;28;20566;-80
2021/04/17 05:13:34;;;;;;;9.63;3.35;;;4.90;71.30;;;;;;5030937;28;20029;-81
2021/04/17 05:15:59;;;;;;;7.00;3.45;;;4.90;71.30;;;;;;5014687;28;20033;-80
2021/04/17 05:18:25;;;;;;;6.95;4.20;;;4.90;71.30;;;;;;5047437;28;20025;-81
2021/04/17 05:20:51;;;;;;;7.63;3.83;;;5.00;71.50;;;;;;5048754;28;20026;-82
2021/04/17 05:23:17;;;;;;;9.90;4.00;;;5.00;71.50;;;;;;5030973;28;20127;-82
2021/04/17 05:25:42;;;;;;;13.35;3.75;;;5.00;71.60;;;;;;5047324;28;20108;-82
2021/04/17 05:28:10;;;;;;;6.53;4.10;;;5.00;72.00;;;;;;5030882;28;20391;-83
2021/04/17 05:30:36;;;;;;;8.32;4.55;;;5.10;71.60;;;;;;5031144;28;20125;-82
2021/04/17 05:33:02;;;;;;;7.93;4.35;;;5.10;71.70;;;;;;5014044;28;20119;-82
2021/04/17 05:35:28;;;;;;;6.85;3.67;;;5.10;71.80;;;;;;5030311;28;20530;-81
2021/04/17 05:37:54;;;;;;;8.30;3.80;;;5.10;71.90;;;;;;5046807;28;20128;-82
2021/04/17 05:40:20;;;;;;;10.93;3.97;;;5.10;71.80;;;;;;5030373;28;20029;-83
2021/04/17 05:42:45;;;;;;;9.82;3.53;;;5.10;71.90;;;;;;5047000;28;20056;-81
2021/04/17 05:45:13;;;;;;;11.60;4.75;;;5.10;72.00;;;;;;5013999;28;20455;-82
2021/04/17 05:47:39;;;;;;;8.68;4.40;;;5.20;72.10;;;;;;5046866;28;20025;-81
2021/04/17 05:50:06;;;;;;;7.00;3.92;;;5.20;72.60;;;;;;5030481;28;20037;-81
2021/04/17 05:52:32;;;;;;;7.50;4.25;;;5.20;72.10;;;;;;5047006;28;20498;-83
2021/04/17 05:54:58;;;;;;;7.40;4.05;;;5.30;72.30;;;;;;5047022;28;20028;-83
2021/04/17 05:57:23;;;;;;;9.32;3.95;;;5.30;72.20;;;;;;5030363;28;20523;-82
2021/04/17 05:59:49;;;;;;;13.68;4.28;;;5.40;72.30;;;;;;5030133;28;20035;-82
2021/04/17 06:02:15;;;;;;;7.82;3.90;;;5.40;72.20;;;;;;5029998;28;20384;-82
2021/04/17 06:04:40;;;;;;;8.80;4.30;;;5.40;72.10;;;;;;5013777;28;20112;-82
2021/04/17 06:07:06;;;;;;;11.07;4.43;;;5.50;72.30;;;;;;5013835;28;20025;-82
2021/04/17 06:09:32;;;;;;;6.93;4.25;;;5.50;72.30;;;;;;5029931;28;20039;-83
2021/04/17 06:11:57;;;;;;;10.23;4.65;;;5.50;72.50;;;;;;5030140;28;20476;-82
2021/04/17 06:14:23;;;;;;;12.07;4.05;;;5.60;72.60;;;;;;5013458;28;20507;-82
2021/04/17 06:16:49;;;;;;;7.35;4.10;;;5.70;72.70;;;;;;5046601;28;20039;-83
2021/04/17 06:19:15;;;;;;;11.35;4.85;;;5.70;72.70;;;;;;5030089;28;20029;-82
2021/04/17 06:21:40;;;;;;;11.70;4.28;;;5.80;72.60;;;;;;5013665;28;20029;-82
2021/04/17 06:24:07;;;;;;;6.68;4.20;;;5.90;72.70;;;;;;5029942;28;20036;-81
2021/04/17 06:26:33;;;;;;;8.05;4.05;;;5.90;72.70;;;;;;5029797;28;20497;-82
2021/04/17 06:28:58;;;;;;;10.38;4.55;;;5.90;72.80;;;;;;5029872;28;20025;-83
2021/04/17 06:31:24;;;;;;;9.70;3.95;;;6.00;72.90;;;;;;5029851;28;20542;-83
2021/04/17 06:33:50;;;;;;;6.40;4.10;;;6.10;73.20;;;;;;5029797;28;20048;-82
2021/04/17 06:36:16;;;;;;;7.13;4.30;;;6.20;73.30;;;;;;5030147;28;20463;-83
2021/04/17 06:38:42;;;;;;;9.82;3.65;;;6.20;73.40;;;;;;5047261;28;20045;-82
2021/04/17 06:41:08;;;;;;;8.38;4.63;;;6.30;73.50;;;;;;5013400;28;20029;-85
2021/04/17 06:43:41;;;;;;;9.20;4.55;;;6.30;73.70;;;;;;5029739;28;20426;-83
2021/04/17 06:46:11;;;;;;;7.57;4.85;;;6.40;73.90;;;;;;5046422;28;20029;-83
2021/04/17 06:48:41;;;;;;;7.63;5.15;;;6.50;73.80;;;;;;5046318;28;20025;-83
2021/04/17 06:51:15;;;;;;;13.57;4.22;;;6.60;73.70;;;;;;5047529;28;20078;-83
2021/04/17 06:53:42;;;;;;;12.00;5.32;;;6.70;73.70;;;;;;5046307;28;20021;-82
2021/04/17 06:56:08;;;;;;;12.73;4.78;;;6.80;73.50;;;;;;5046116;28;20056;-83
2021/04/17 06:58:35;;;;;;;10.98;4.47;;;6.90;73.30;;;;;;5029283;28;20372;-83
2021/04/17 07:01:00;;;;;;;9.45;4.38;;;7.00;73.20;;;;;;5046244;28;20029;-83
2021/04/17 07:03:26;;;;;;;9.57;4.10;;;7.10;72.90;;;;;;5029853;28;20029;-84
2021/04/17 07:05:52;;;;;;;6.93;4.07;;;7.30;73.20;;;;;;5029989;28;20029;-83
2021/04/17 07:08:18;;;;;;;8.52;3.33;;;7.70;75.10;;;;;;5029513;28;20029;-82
2021/04/17 07:10:43;;;;;;;4.03;3.10;;;8.50;75.10;;;;;;5046286;28;20450;-84
2021/04/17 07:13:12;;;;;;;8.98;3.35;;;9.20;73.80;;;;;;5047656;28;20175;-83
2021/04/17 07:15:39;;;;;;;7.95;3.15;;;9.80;72.00;;;;;;5050789;28;20104;-84
2021/04/17 07:18:23;;;;;;;6.72;3.50;;;10.30;70.10;;;;;;5049640;28;20021;-83
2021/04/17 07:20:49;;;;;;;11.35;3.53;;;10.30;68.20;;;;;;5050689;28;20029;-84
2021/04/17 07:23:30;;;;;;;9.65;3.50;;;10.20;68.00;;;;;;5032974;28;20040;-83
2021/04/17 07:26:15;;;;;;;5.72;2.50;;;10.30;68.10;;;;;;5049154;28;20021;-82
2021/04/17 07:28:58;;;;;;;7.60;2.80;;;10.40;67.30;;;;;;5049730;28;20115;-84
2021/04/17 07:31:28;;;;;;;5.20;2.42;;;10.70;68.00;;;;;;5049454;28;20052;-84
2021/04/17 07:33:54;;;;;;;;;;;11.40;68.30;;;;;;5033950;28;20037;-84
2021/04/17 07:36:21;;;;;;;6.30;2.67;;;12.30;67.60;;;;;;5050436;28;20384;-83
2021/04/17 07:38:47;;;;;;;8.52;3.13;;;12.80;65.20;;;;;;5032381;28;20053;-82
2021/04/17 07:41:16;;;;;;;4.13;2.40;;;12.90;64.50;;;;;;5032522;28;20045;-83
2021/04/17 07:43:51;;;;;;;5.97;2.63;;;13.40;64.10;;;;;;5048929;28;20089;-82
2021/04/17 07:46:21;;;;;;;4.18;2.20;;;14.40;63.90;;;;;;5050344;28;20036;-83
2021/04/17 07:48:47;;;;;;;5.97;2.28;;;16.10;63.20;;;;;;5048617;28;20356;-82
2021/04/17 07:51:13;;;;;;;5.55;2.40;;;17.70;61.00;;;;;;5049801;28;20028;-82
2021/04/17 07:53:42;;;;;;;20.48;3.05;;;19.10;58.80;;;;;;5032642;28;20144;-84
2021/04/17 07:56:31;;;;;;;6.55;2.28;;;20.20;55.80;;;;;;5048187;28;20492;-83
2021/04/17 07:59:02;;;;;;;3.97;1.77;;;21.20;53.20;;;;;;5049366;28;20500;-83
2021/04/17 08:01:29;;;;;;;5.63;1.30;;;21.80;51.60;;;;;;5048196;28;20074;-82
2021/04/17 08:03:56;;;;;;;3.20;1.00;;;22.20;49.70;;;;;;5031041;28;20112;-83
2021/04/17 08:06:24;;;;;;;5.47;1.70;;;22.50;48.60;;;;;;5048065;28;20025;-82
2021/04/17 08:08:51;;;;;;;5.45;1.88;;;22.80;47.40;;;;;;5048081;28;20057;-84
2021/04/17 08:11:20;;;;;;;2.97;1.20;;;23.10;46.70;;;;;;5048118;28;20113;-83
2021/04/17 08:13:47;;;;;;;3.15;1.90;;;23.40;46.00;;;;;;5048800;28;20021;-84
2021/04/17 08:16:13;;;;;;;4.57;1.65;;;23.80;45.30;;;;;;5047731;28;20025;-85
2021/04/17 08:18:39;;;;;;;1.70;1.10;;;24.30;43.90;;;;;;5015139;28;20025;-84
2021/04/17 08:21:08;;;;;;;3.13;1.20;;;24.40;42.30;;;;;;5047624;28;20110;-76
2021/04/17 08:23:36;;;;;;;3.83;1.10;;;24.30;41.80;;;;;;5047512;28;20025;-85
2021/04/17 08:26:03;;;;;;;3.42;1.30;;;24.50;41.90;;;;;;5031769;28;20443;-86
2021/04/17 08:28:29;;;;;;;4.95;1.58;;;24.60;40.90;;;;;;5031466;28;20423;-82
2021/04/17 08:31:24;;;;;;;2.03;0.93;;;24.60;40.60;;;;;;5031313;28;20044;-83
2021/04/17 08:34:17;;;;;;;3.03;1.08;;;24.70;40.10;;;;;;5047349;28;20178;-84
2021/04/17 08:37:02;;;;;;;3.58;1.23;;;25.10;39.60;;;;;;5048733;28;20096;-86
2021/04/17 08:39:34;;;;;;;5.55;1.63;;;25.30;39.00;;;;;;5049096;28;20090;-84
2021/04/17 08:42:05;;;;;;;2.00;1.38;;;25.50;38.80;;;;;;5047652;28;20059;-83
2021/04/17 08:44:37;;;;;;;4.22;1.35;;;25.80;38.30;;;;;;5030912;28;20433;-83
2021/04/17 08:47:05;;;;;;;5.43;1.20;;;26.20;38.10;;;;;;5047429;28;20041;-83
2021/04/17 08:49:39;;;;;;;3.15;1.83;;;26.40;37.20;;;;;;5047092;28;20059;-85
2021/04/17 08:52:23;;;;;;;5.97;1.60;;;26.60;36.50;;;;;;5049220;28;20048;-85
2021/04/17 08:54:54;;;;;;;3.00;1.25;;;27.00;36.50;;;;;;5048701;28;20018;-84
2021/04/17 08:57:21;;;;;;;2.28;1.20;;;27.20;35.60;;;;;;5048391;28;20025;-84
2021/04/17 08:59:56;;;;;;;2.60;1.35;;;27.30;35.80;;;;;;5048764;28;20025;-84
2021/04/17 09:02:23;;;;;;;5.95;1.77;;;27.50;35.30;;;;;;5046761;28;20023;-84
2021/04/17 09:04:59;;;;;;;4.00;1.98;;;27.60;34.90;;;;;;5047412;28;20047;-76
2021/04/17 09:07:26;;;;;;;6.85;1.35;;;27.70;34.30;;;;;;5047484;28;20774;-83
2021/04/17 09:09:52;;;;;;;4.93;1.40;;;27.70;33.90;;;;;;5046266;28;20017;-85
2021/04/17 09:12:20;;;;;;;5.38;1.35;;;27.70;34.40;;;;;;5047289;28;20291;-85
2021/04/17 09:14:53;;;;;;;4.50;1.35;;;27.70;34.10;;;;;;5047711;28;20475;-82
2021/04/17 09:17:31;;;;;;;9.35;3.58;;;27.90;33.90;;;;;;5046449;28;20031;-84
2021/04/17 09:19:59;;;;;;;5.25;1.10;;;28.20;34.10;;;;;;5046706;28;20032;-85
2021/04/17 09:22:30;;;;;;;3.20;1.45;;;28.40;34.10;;;;;;5046928;28;20107;-84
2021/04/17 09:24:58;;;;;;;7.13;1.85;;;28.50;34.20;;;;;;5049210;28;20013;-84
2021/04/17 09:27:34;;;;;;;4.57;1.85;;;28.50;33.80;;;;;;5047853;28;20464;-83
2021/04/17 09:30:17;;;;;;;4.72;1.17;;;28.60;33.70;;;;;;5048380;28;20029;-84
2021/04/17 09:32:48;;;;;;;4.07;1.60;;;28.70;33.50;;;;;;5047777;28;20419;-83
2021/04/17 09:35:29;;;;;;;4.90;1.77;;;28.60;33.10;;;;;;5047526;28;20494;-84
2021/04/17 09:37:59;;;;;;;6.20;1.45;;;28.60;33.30;;;;;;5046390;28;20045;-82
2021/04/17 09:40:52;;;;;;;8.27;2.88;;;28.80;33.60;;;;;;5046194;28;20052;-83
2021/04/17 09:43:23;;;;;;;5.45;1.20;;;28.80;33.10;;;;;;5045490;28;20110;-81
2021/04/17 09:45:50;;;;;;;4.75;1.67;;;28.60;33.00;;;;;;5047107;28;20036;-82
2021/04/17 09:48:17;;;;;;;5.47;1.30;;;28.50;32.30;;;;;;5045609;28;20056;-82
2021/04/17 09:50:43;;;;;;;4.82;1.50;;;28.40;32.20;;;;;;5012882;28;20054;-83
2021/04/17 09:53:29;;;;;;;3.72;1.60;;;28.40;32.10;;;;;;5045403;28;20131;-83
2021/04/17 09:55:57;;;;;;;2.97;1.90;;;28.50;32.00;;;;;;5045467;28;20052;-83
2021/04/17 09:58:37;;;;;;;7.25;1.73;;;28.70;31.90;;;;;;5045353;28;20025;-81
2021/04/17 10:01:17;;;;;;;3.53;1.73;;;29.10;31.90;;;;;;5046031;28;20071;-84
2021/04/17 10:03:52;;;;;;;5.07;1.73;;;29.50;31.60;;;;;;5045487;28;20043;-82
2021/04/17 10:06:35;;;;;;;9.95;3.25;;;29.50;31.50;;;;;;5045816;28;20030;-84
2021/04/17 10:09:07;;;;;;;7.10;2.25;;;29.40;31.40;;;;;;5045554;28;20047;-84
2021/04/17 10:11:39;;;;;;;3.80;1.65;;;29.50;31.40;;;;;;5046746;28;20025;-81
2021/04/17 10:14:05;;;;;;;4.10;2.83;;;29.50;31.30;;;;;;5044850;28;20052;-82
2021/04/17 10:16:36;;;;;;;4.22;2.15;;;29.50;31.30;;;;;;5028736;28;20021;-82
2021/04/17 10:19:07;;;;;;;7.32;3.20;;;29.60;31.30;;;;;;5044893;28;20021;-82
2021/04/17 10:21:34;;;;;;;4.95;2.28;;;29.50;31.10;;;;;;5045880;28;20021;-81
2021/04/17 10:24:15;;;;;;;5.75;2.20;;;29.50;31.20;;;;;;5044901;28;20033;-83
2021/04/17 10:27:04;;;;;;;2.95;1.63;;;29.30;30.90;;;;;;5045119;28;20029;-81
2021/04/17 10:29:37;;;;;;;;;;;29.10;31.30;;;;;;5046812;28;20049;-83
2021/04/17 10:32:15;;;;;;;8.63;2.38;;;29.30;32.10;;;;;;5044278;28;19948;-83
2021/04/17 10:34:43;;;;;;;6.20;1.98;;;29.70;32.00;;;;;;5045752;28;20029;-83
2021/04/17 10:37:13;;;;;;;4.47;2.10;;;29.60;31.80;;;;;;5044576;28;20110;-85
2021/04/17 10:40:10;;;;;;;5.80;1.90;;;29.50;31.90;;;;;;5044477;28;20029;-82
2021/04/17 10:42:54;;;;;;;6.38;2.00;;;29.90;32.20;;;;;;5045388;28;20384;-84
2021/04/17 10:45:25;;;;;;;5.13;2.10;;;30.30;32.20;;;;;;5045421;28;20055;-84
2021/04/17 10:48:10;;;;;;;4.50;2.28;;;30.60;31.80;;;;;;5047468;28;20025;-82
2021/04/17 10:50:38;;;;;;;3.92;2.13;;;30.50;31.50;;;;;;5050151;28;20017;-83
2021/04/17 10:53:13;;;;;;;11.10;2.53;;;30.20;31.30;;;;;;5050337;28;20021;-83
2021/04/17 10:55:47;;;;;;;5.32;2.03;;;30.10;31.60;;;;;;5049145;28;20029;-84
2021/04/17 10:58:29;;;;;;;5.57;2.03;;;30.00;31.60;;;;;;5050763;28;20048;-84
2021/04/17 11:00:58;;;;;;;7.55;3.65;;;30.10;32.10;;;;;;5049062;28;20547;-83
2021/04/17 11:03:30;;;;;;;15.65;11.25;;;30.50;32.00;;;;;;5049964;28;20116;-83
2021/04/17 11:05:57;;;;;;;6.63;3.47;;;30.50;31.70;;;;;;5048965;28;20026;-85
2021/04/17 11:08:28;;;;;;;17.73;7.55;;;30.40;31.40;;;;;;5032442;28;20040;-84
2021/04/17 11:10:55;;;;;;;6.82;3.47;;;30.30;31.60;;;;;;5049165;28;20052;-85
2021/04/17 11:13:31;;;;;;;6.28;2.45;;;30.30;31.70;;;;;;5049003;28;20430;-86
2021/04/17 11:15:58;;;;;;;6.57;2.30;;;30.30;31.40;;;;;;5032945;28;20036;-83
2021/04/17 11:18:24;;;;;;;9.63;2.88;;;30.30;31.70;;;;;;5032627;28;20163;-87
2021/04/17 11:20:58;;;;;;;4.38;2.17;;;30.40;31.60;;;;;;5050902;28;20033;-85
2021/04/17 11:23:37;;;;;;;6.20;3.28;;;30.20;31.40;;;;;;5048959;28;20056;-84
2021/04/17 11:26:07;;;;;;;4.60;2.05;;;30.10;31.50;;;;;;5048437;28;20112;-84
2021/04/17 11:28:35;;;;;;;3.42;2.00;;;30.00;31.70;;;;;;5048057;28;20032;-82
2021/04/17 11:31:00;;;;;;;6.05;3.05;;;29.80;31.70;;;;;;5049422;28;20064;-83
2021/04/17 11:33:26;;;;;;;4.35;2.00;;;29.80;32.00;;;;;;5031656;28;20476;-85
2021/04/17 11:35:52;;;;;;;4.97;3.25;;;29.90;31.70;;;;;;5050027;28;20064;-84
2021/04/17 11:38:18;;;;;;;5.55;2.08;;;30.00;31.80;;;;;;5015372;28;20071;-87
2021/04/17 11:40:45;;;;;;;11.23;3.10;;;29.90;32.00;;;;;;5050367;28;20037;-84
2021/04/17 11:43:11;;;;;;;7.65;2.22;;;30.10;32.20;;;;;;5048113;28;20061;-85
2021/04/17 11:45:37;;;;;;;4.55;2.40;;;30.30;32.00;;;;;;5047794;28;20087;-83
2021/04/17 11:48:05;;;;;;;3.53;2.30;;;30.10;31.90;;;;;;5047604;28;20409;-86
2021/04/17 11:50:31;;;;;;;4.18;1.92;;;29.90;31.90;;;;;;5047235;28;20053;-85
2021/04/17 11:52:57;;;;;;;9.60;2.45;;;29.80;31.90;;;;;;5048467;28;20036;-85
2021/04/17 11:55:23;;;;;;;3.67;1.92;;;29.50;32.00;;;;;;5031363;28;20074;-84
2021/04/17 11:57:50;;;;;;;11.85;4.47;;;29.40;32.10;;;;;;5047523;28;20285;-88
2021/04/17 12:00:17;;;;;;;4.68;2.35;;;29.40;32.30;;;;;;5031085;28;20515;-87
2021/04/17 12:02:42;;;;;;;8.05;2.45;;;29.40;32.40;;;;;;5047750;28;20047;-84
2021/04/17 12:05:09;;;;;;;10.38;2.38;;;29.20;32.60;;;;;;5048088;28;20039;-86
2021/04/17 12:07:35;;;;;;;10.60;2.53;;;29.10;32.20;;;;;;5015136;28;20033;-82
2021/04/17 12:10:01;;;;;;;5.03;2.22;;;28.90;32.90;;;;;;5047772;28;20238;-84
2021/04/17 12:12:28;;;;;;;3.95;2.40;;;28.80;32.80;;;;;;5030704;28;20124;-86
2021/04/17 12:14:54;;;;;;;4.00;2.20;;;28.50;32.70;;;;;;5015631;28;20029;-83
2021/04/17 12:17:19;;;;;;;4.40;2.72;;;28.30;32.90;;;;;;5048836;28;20123;-83
2021/04/17 12:19:45;;;;;;;6.93;2.17;;;28.30;33.00;;;;;;5047145;28;20033;-86
2021/04/17 12:22:11;;;;;;;6.47;2.92;;;28.40;32.90;;;;;;5031162;28;20031;-84
2021/04/17 12:24:37;;;;;;;4.47;2.30;;;28.30;32.80;;;;;;5031486;28;20211;-87
2021/04/17 12:27:03;;;;;;;13.50;7.57;;;28.40;32.80;;;;;;5047495;28;20468;-85
2021/04/17 12:29:29;;;;;;;15.63;7.70;;;28.20;32.70;;;;;;5030513;28;20521;-83
2021/04/17 12:31:54;;;;;;;16.27;10.10;;;28.30;33.00;;;;;;5015000;28;20122;-84
2021/04/17 12:34:20;;;;;;;6.68;3.88;;;27.70;32.40;;;;;;5031230;28;20071;-86
2021/04/17 12:36:46;;;;;;;6.68;3.38;;;27.10;33.10;;;;;;5031097;28;20387;-85
2021/04/17 12:39:11;;;;;;;6.35;3.42;;;27.10;33.50;;;;;;5048236;28;20137;-84
2021/04/17 12:41:37;;;;;;;9.95;6.72;;;27.20;33.60;;;;;;5047871;28;20033;-85
2021/04/17 12:44:03;;;;;;;20.85;4.55;;;27.10;33.50;;;;;;5031349;28;20032;-86
2021/04/17 12:46:29;;;;;;;21.73;7.03;;;26.70;33.60;;;;;;5047666;28;20090;-87
2021/04/17 12:48:54;;;;;;;5.63;3.00;;;26.30;33.80;;;;;;5015579;28;20471;-87
2021/04/17 12:51:20;;;;;;;12.45;8.40;;;26.30;34.10;;;;;;5014722;28;20076;-85
2021/04/17 12:53:46;;;;;;;12.25;8.10;;;26.60;34.40;;;;;;5047749;28;20063;-86
2021/04/17 12:56:11;;;;;;;5.07;2.50;;;26.40;33.80;;;;;;5015996;28;20025;-85
2021/04/17 12:58:39;;;;;;;5.75;2.70;;;26.00;33.80;;;;;;5014914;28;20116;-87